Time,TemperatureF,DewpointF,PressureIn,WindDirection,WindDirectionDegrees,WindSpeedMPH,WindSpeedGustMPH,Humidity,HourlyPrecipIn,Conditions,Clouds,dailyrainin,SoftwareType,DateUTC
2013-02-18 00:00:00,15.2,8.7,30.32,NNW,330,0.0,0.0,75,0.00,,CLR,0.00,VWS V14.01,2013-02-18 05:00:00,
2013-02-18 00:05:00,15.2,8.7,30.32,NNW,330,0.0,0.0,75,0.00,,CLR,0.00,VWS V14.01,2013-02-18 05:05:00,
2013-02-18 00:10:00,15.2,8.7,30.32,NNW,330,0.0,0.0,75,0.00,,CLR,0.00,VWS V14.01,2013-02-18 05:10:00,
2013-02-18 00:15:00,15.2,8.4,30.32,NNW,330,0.0,0.0,74,0.00,,CLR,0.00,VWS V14.01,2013-02-18 05:15:00,
2013-02-18 00:20:00,15.1,8.3,30.32,NNW,330,0.0,0.0,74,0.00,,CLR,0.00,VWS V14.01,2013-02-18 05:20:00,
2013-02-18 00:25:00,15.1,8.6,30.32,NNW,330,0.0,0.0,75,0.00,,CLR,0.00,VWS V14.01,2013-02-18 05:25:00,
2013-02-18 00:30:00,15.1,8.3,30.32,NNW,330,0.0,0.0,74,0.00,,CLR,0.00,VWS V14.01,2013-02-18 05:30:00,
2013-02-18 00:35:00,15.1,8.3,30.32,NNW,330,0.0,0.0,74,0.00,,CLR,0.00,VWS V14.01,2013-02-18 05:35:00,
2013-02-18 00:40:00,15.1,8.3,30.32,NNW,330,0.0,0.0,74,0.00,,CLR,0.00,VWS V14.01,2013-02-18 05:40:00,
2013-02-18 00:45:00,14.9,8.1,30.32,NNW,330,0.0,0.0,74,0.00,,CLR,0.00,VWS V14.01,2013-02-18 05:45:00,
2013-02-18 00:50:00,14.8,8.0,30.32,NNW,330,0.0,0.0,74,0.00,,CLR,0.00,VWS V14.01,2013-02-18 05:50:00,
2013-02-18 01:00:00,14.8,8.3,30.32,NNW,330,0.0,0.0,75,0.00,,CLR,0.00,VWS V14.01,2013-02-18 06:00:00,
2013-02-18 01:15:00,14.8,8.3,30.32,NNW,330,0.0,0.0,75,0.00,,CLR,0.00,VWS V14.01,2013-02-18 06:15:00,
2013-02-18 01:30:00,15.1,8.3,30.32,NNW,330,0.0,0.0,74,0.00,,CLR,0.00,VWS V14.01,2013-02-18 06:30:00,
2013-02-18 01:45:00,15.4,8.3,30.32,NNW,330,0.0,0.0,73,0.00,,CLR,0.00,VWS V14.01,2013-02-18 06:45:00,
2013-02-18 02:00:00,15.2,8.1,30.31,NNW,330,0.0,0.0,73,0.00,,CLR,0.00,VWS V14.01,2013-02-18 07:00:00,
2013-02-18 02:15:00,15.2,7.8,30.32,NNW,330,0.0,0.0,72,0.00,,CLR,0.00,VWS V14.01,2013-02-18 07:15:00,
2013-02-18 02:30:00,15.2,7.8,30.32,NNW,330,0.0,0.0,72,0.00,,CLR,0.00,VWS V14.01,2013-02-18 07:30:00,
2013-02-18 02:45:00,15.1,7.7,30.32,NNW,330,0.0,0.0,72,0.00,,CLR,0.00,VWS V14.01,2013-02-18 07:45:00,
2013-02-18 03:00:00,14.9,7.8,30.32,NNW,330,0.0,0.0,73,0.00,,CLR,0.00,VWS V14.01,2013-02-18 08:00:00,
2013-02-18 03:15:00,14.9,7.8,30.31,NNW,330,0.0,0.0,73,0.00,,CLR,0.00,VWS V14.01,2013-02-18 08:15:00,
2013-02-18 03:30:00,15.1,7.7,30.31,NNW,330,0.0,0.0,72,0.00,,CLR,0.00,VWS V14.01,2013-02-18 08:30:00,
2013-02-18 03:45:00,15.2,7.8,30.31,NNW,328,0.0,0.0,72,0.00,,CLR,0.00,VWS V14.01,2013-02-18 08:45:00,
2013-02-18 04:00:00,15.2,7.8,30.31,NNW,328,0.0,0.0,72,0.00,,CLR,0.00,VWS V14.01,2013-02-18 09:00:00,
2013-02-18 04:15:00,15.2,7.5,30.31,NNW,328,0.0,0.0,71,0.00,,CLR,0.00,VWS V14.01,2013-02-18 09:15:00,
2013-02-18 04:30:00,15.6,7.6,30.30,NNW,328,0.0,0.0,70,0.00,,CLR,0.00,VWS V14.01,2013-02-18 09:30:00,
2013-02-18 04:45:00,15.6,7.6,30.30,South,184,0.0,0.0,70,0.00,,CLR,0.00,VWS V14.01,2013-02-18 09:45:00,
2013-02-18 05:00:00,15.7,7.7,30.30,SSE,168,0.0,0.0,70,0.00,,CLR,0.00,VWS V14.01,2013-02-18 10:00:00,
2013-02-18 05:15:00,16.1,7.7,30.30,SSE,168,0.0,1.0,69,0.00,,CLR,0.00,VWS V14.01,2013-02-18 10:15:00,
2013-02-18 05:30:00,16.5,7.8,30.30,South,184,0.0,3.0,68,0.00,,CLR,0.00,VWS V14.01,2013-02-18 10:30:00,
2013-02-18 05:45:00,17.0,7.6,30.30,SSE,147,0.0,2.0,66,0.00,,CLR,0.00,VWS V14.01,2013-02-18 10:45:00,
2013-02-18 06:00:00,17.2,7.8,30.29,SSE,152,0.0,2.0,66,0.00,,CLR,0.00,VWS V14.01,2013-02-18 11:00:00,
2013-02-18 06:15:00,17.2,7.8,30.29,SE,143,0.0,2.0,66,0.00,,CLR,0.00,VWS V14.01,2013-02-18 11:15:00,
2013-02-18 06:30:00,17.3,7.9,30.29,SSE,151,0.0,2.0,66,0.00,,CLR,0.00,VWS V14.01,2013-02-18 11:30:00,
2013-02-18 06:45:00,17.7,7.9,30.28,SSE,152,0.0,0.0,65,0.00,,CLR,0.00,VWS V14.01,2013-02-18 11:45:00,
2013-02-18 07:00:00,17.8,7.7,30.28,SE,128,1.0,2.0,64,0.00,,CLR,0.00,VWS V14.01,2013-02-18 12:00:00,
2013-02-18 07:15:00,18.0,8.2,30.28,SE,128,1.0,2.0,65,0.00,,CLR,0.00,VWS V14.01,2013-02-18 12:15:00,
2013-02-18 07:30:00,18.1,8.3,30.28,SE,136,1.0,3.0,65,0.00,,CLR,0.00,VWS V14.01,2013-02-18 12:30:00,
2013-02-18 07:45:00,18.6,8.5,30.28,ESE,123,0.0,3.0,64,0.00,,CLR,0.00,VWS V14.01,2013-02-18 12:45:00,
2013-02-18 08:00:00,19.5,9.0,30.28,SE,126,1.0,3.0,63,0.00,,CLR,0.00,VWS V14.01,2013-02-18 13:00:00,
2013-02-18 08:15:00,20.8,9.1,30.27,SE,134,2.0,4.0,60,0.00,,CLR,0.00,VWS V14.01,2013-02-18 13:15:00,
2013-02-18 08:30:00,22.2,9.7,30.26,SSE,160,3.0,5.0,58,0.00,,CLR,0.00,VWS V14.01,2013-02-18 13:30:00,
2013-02-18 08:45:00,23.3,10.3,30.26,SE,124,3.0,6.0,57,0.00,,CLR,0.00,VWS V14.01,2013-02-18 13:45:00,
2013-02-18 09:00:00,25.0,11.5,30.26,SSE,147,2.0,6.0,56,0.00,,CLR,0.00,VWS V14.01,2013-02-18 14:00:00,
2013-02-18 09:15:00,26.6,11.4,30.25,South,184,6.0,7.0,52,0.00,,CLR,0.00,VWS V14.01,2013-02-18 14:15:00,
2013-02-18 09:30:00,27.6,11.4,30.24,ESE,116,3.0,8.0,50,0.00,,CLR,0.00,VWS V14.01,2013-02-18 14:30:00,
2013-02-18 09:45:00,29.0,12.2,30.23,SE,128,1.0,7.0,49,0.00,,CLR,0.00,VWS V14.01,2013-02-18 14:45:00,
2013-02-18 10:00:00,31.0,13.6,30.22,SE,144,2.0,12.0,48,0.00,,CLR,0.00,VWS V14.01,2013-02-18 15:00:00,
2013-02-18 10:15:00,32.1,13.7,30.21,SSE,168,0.0,5.0,46,0.00,,CLR,0.00,VWS V14.01,2013-02-18 15:15:00,
2013-02-18 10:30:00,33.1,14.6,30.20,SSE,161,4.0,8.0,46,0.00,,CLR,0.00,VWS V14.01,2013-02-18 15:30:00,
2013-02-18 10:45:00,34.3,16.2,30.20,SE,138,0.0,8.0,47,0.00,,CLR,0.00,VWS V14.01,2013-02-18 15:45:00,
2013-02-18 11:00:00,36.6,17.3,30.18,SW,220,11.0,16.0,45,0.00,,CLR,0.00,VWS V14.01,2013-02-18 16:00:00,
2013-02-18 11:15:00,37.6,17.1,30.17,SSW,200,6.0,13.0,43,0.00,,CLR,0.00,VWS V14.01,2013-02-18 16:15:00,
2013-02-18 11:30:00,38.2,18.2,30.17,SE,141,5.0,11.0,44,0.00,,FEW041,0.00,VWS V14.01,2013-02-18 16:30:00,
2013-02-18 11:45:00,40.1,21.0,30.15,SSE,165,10.0,13.0,46,0.00,,FEW041,0.00,VWS V14.01,2013-02-18 16:45:00,
2013-02-18 12:00:00,41.1,19.8,30.15,South,181,0.0,10.0,42,0.00,,FEW041,0.00,VWS V14.01,2013-02-18 17:00:00,
2013-02-18 12:15:00,42.6,22.2,30.13,South,171,5.0,14.0,44,0.00,,CLR,0.00,VWS V14.01,2013-02-18 17:15:00,
2013-02-18 12:30:00,43.5,22.0,30.12,South,191,6.0,16.0,42,0.00,,CLR,0.00,VWS V14.01,2013-02-18 17:30:00,
2013-02-18 12:45:00,44.2,23.1,30.11,SE,136,2.0,14.0,43,0.00,,CLR,0.00,VWS V14.01,2013-02-18 17:45:00,
2013-02-18 13:00:00,44.9,24.3,30.10,SSE,148,0.0,14.0,44,0.00,,CLR,0.00,VWS V14.01,2013-02-18 18:00:00,
2013-02-18 13:15:00,45.7,25.6,30.09,SSW,193,13.0,14.0,45,0.00,,CLR,0.00,VWS V14.01,2013-02-18 18:15:00,
2013-02-18 13:30:00,46.8,26.6,30.08,SSE,167,8.0,13.0,45,0.00,,CLR,0.00,VWS V14.01,2013-02-18 18:30:00,
2013-02-18 13:45:00,47.6,27.3,30.07,SSW,203,2.0,11.0,45,0.00,,CLR,0.00,VWS V14.01,2013-02-18 18:45:00,
2013-02-18 14:00:00,51.4,29.7,30.04,SSW,198,6.0,13.0,43,0.00,,OVC100,0.00,VWS V14.01,2013-02-18 19:00:00,
2013-02-18 14:15:00,48.9,28.0,30.06,South,184,7.0,12.0,44,0.00,,CLR,0.00,VWS V14.01,2013-02-18 19:15:00,
2013-02-18 14:30:00,49.9,27.7,30.05,SSW,202,5.0,9.0,42,0.00,,CLR,0.00,VWS V14.01,2013-02-18 19:30:00,
2013-02-18 14:45:00,50.5,28.9,30.05,South,182,0.0,7.0,43,0.00,,CLR,0.00,VWS V14.01,2013-02-18 19:45:00,
2013-02-18 15:00:00,51.4,29.7,30.04,SSW,198,6.0,13.0,43,0.00,,CLR,0.00,VWS V14.01,2013-02-18 20:00:00,
2013-02-18 15:15:00,51.7,29.4,30.04,SSW,192,2.0,18.0,42,0.00,,CLR,0.00,VWS V14.01,2013-02-18 20:15:00,
2013-02-18 15:30:00,51.7,29.4,30.03,South,181,8.0,19.0,42,0.00,,CLR,0.00,VWS V14.01,2013-02-18 20:30:00,
2013-02-18 15:45:00,52.3,29.9,30.03,South,172,6.0,16.0,42,0.00,,CLR,0.00,VWS V14.01,2013-02-18 20:45:00,
2013-02-18 16:00:00,52.3,30.5,30.02,SSE,168,6.0,12.0,43,0.00,,CLR,0.00,VWS V14.01,2013-02-18 21:00:00,
2013-02-18 16:15:00,52.3,30.5,30.01,SSE,157,0.0,13.0,43,0.00,,CLR,0.00,VWS V14.01,2013-02-18 21:15:00,
2013-02-18 16:30:00,52.0,30.8,30.01,South,184,1.0,15.0,44,0.00,,CLR,0.00,VWS V14.01,2013-02-18 21:30:00,
2013-02-18 16:45:00,49.8,30.9,29.98,SE,126,0.0,5.0,48,0.00,,OVC100,0.00,VWS V14.01,2013-02-18 21:45:00,
2013-02-18 17:00:00,52.0,30.8,29.99,SSE,161,0.0,16.0,44,0.00,,CLR,0.00,VWS V14.01,2013-02-18 22:00:00,
2013-02-18 17:15:00,50.8,30.8,29.99,South,186,0.0,17.0,46,0.00,,CLR,0.00,VWS V14.01,2013-02-18 22:15:00,
2013-02-18 17:30:00,50.4,31.5,29.98,SSE,151,0.0,3.0,48,0.00,,CLR,0.00,VWS V14.01,2013-02-18 22:30:00,
2013-02-18 17:45:00,49.8,30.9,29.98,SE,126,0.0,5.0,48,0.00,,CLR,0.00,VWS V14.01,2013-02-18 22:45:00,
2013-02-18 18:00:00,49.2,30.9,29.97,SSE,147,0.0,10.0,49,0.00,,CLR,0.00,VWS V14.01,2013-02-18 23:00:00,
2013-02-18 18:15:00,48.9,30.6,29.96,SE,127,0.0,6.0,49,0.00,,CLR,0.00,VWS V14.01,2013-02-18 23:15:00,
2013-02-18 18:30:00,47.9,32.5,29.94,ESE,113,5.0,7.0,55,0.00,,OVC100,0.00,VWS V14.01,2013-02-18 23:30:00,
2013-02-18 18:45:00,48.6,31.8,29.95,SSE,154,0.0,6.0,52,0.00,,CLR,0.00,VWS V14.01,2013-02-18 23:45:00,
2013-02-18 19:00:00,48.2,31.9,29.95,South,186,0.0,7.0,53,0.00,,CLR,0.00,VWS V14.01,2013-02-19 00:00:00,
2013-02-18 19:15:00,48.0,32.2,29.95,SE,127,0.0,6.0,54,0.00,,CLR,0.00,VWS V14.01,2013-02-19 00:15:00,
2013-02-18 19:30:00,47.9,32.5,29.94,ESE,113,5.0,7.0,55,0.00,,CLR,0.00,VWS V14.01,2013-02-19 00:30:00,
2013-02-18 19:44:00,47.9,32.1,29.93,South,169,0.0,7.0,54,0.00,,CLR,0.00,VWS V14.01,2013-02-19 00:44:00,
2013-02-18 19:45:00,48.3,31.5,29.91,ESE,119,0.0,11.0,52,0.00,,OVC100,0.00,VWS V14.01,2013-02-19 00:45:00,
2013-02-18 20:00:00,48.0,31.7,29.93,South,179,0.0,6.0,53,0.00,,CLR,0.00,VWS V14.01,2013-02-19 01:00:00,
2013-02-18 20:15:00,48.3,31.5,29.93,SSE,160,7.0,10.0,52,0.00,,CLR,0.00,VWS V14.01,2013-02-19 01:15:00,
2013-02-18 20:30:00,48.3,31.5,29.92,SSE,151,0.0,12.0,52,0.00,,CLR,0.00,VWS V14.01,2013-02-19 01:30:00,
2013-02-18 20:45:00,48.3,31.5,29.91,ESE,119,0.0,11.0,52,0.00,,CLR,0.00,VWS V14.01,2013-02-19 01:45:00,
2013-02-18 21:00:00,48.2,30.9,29.90,SSE,151,0.0,7.0,51,0.00,,CLR,0.00,VWS V14.01,2013-02-19 02:00:00,
2013-02-18 21:15:00,47.7,30.5,29.89,SSE,150,0.0,7.0,51,0.00,,CLR,0.00,VWS V14.01,2013-02-19 02:15:00,
2013-02-18 21:30:00,47.4,30.7,29.88,South,175,0.0,8.0,52,0.00,,CLR,0.00,VWS V14.01,2013-02-19 02:30:00,
2013-02-18 21:45:00,47.6,29.4,29.87,SE,134,0.0,8.0,49,0.00,,CLR,0.00,VWS V14.01,2013-02-19 02:45:00,
2013-02-18 22:00:00,47.9,29.7,29.87,South,186,0.0,12.0,49,0.00,,CLR,0.00,VWS V14.01,2013-02-19 03:00:00,
2013-02-18 22:15:00,48.0,29.3,29.85,SE,131,3.0,16.0,48,0.00,,CLR,0.00,VWS V14.01,2013-02-19 03:15:00,
2013-02-18 22:30:00,48.2,29.5,29.83,SSE,147,5.0,14.0,48,0.00,,BKN100,0.00,VWS V14.01,2013-02-19 03:30:00,
2013-02-18 22:45:00,48.9,29.0,29.82,South,185,6.0,13.0,46,0.00,,OVC100,0.00,VWS V14.01,2013-02-19 03:45:00,
2013-02-18 23:00:00,48.5,29.2,29.82,SSW,199,6.0,10.0,47,0.00,,BKN100,0.00,VWS V14.01,2013-02-19 04:00:00,
2013-02-18 23:15:00,48.8,29.5,29.81,South,191,5.0,17.0,47,0.00,,BKN100,0.00,VWS V14.01,2013-02-19 04:15:00,
2013-02-18 23:30:00,48.9,29.0,29.81,South,184,7.0,13.0,46,0.00,,FEW110,0.00,VWS V14.01,2013-02-19 04:30:00,
2013-02-18 23:45:00,48.9,29.0,29.82,South,185,6.0,13.0,46,0.00,,FEW110,0.00,VWS V14.01,2013-02-19 04:45:00,